createdAt,value
2022-10-11T00:02:17.614Z,88.99
2022-10-11T00:04:45.826Z,87.52
2022-10-11T00:07:13.463Z,87.30
2022-10-11T00:09:41.128Z,89.29
2022-10-11T00:12:08.929Z,88.65
2022-10-11T00:14:36.650Z,87.11
2022-10-11T00:17:04.556Z,88.64
2022-10-11T00:19:33.605Z,87.49
2022-10-11T00:22:01.339Z,87.04
2022-10-11T00:24:29.211Z,88.26
2022-10-11T00:26:56.927Z,88.62
2022-10-11T00:29:24.754Z,87.23
2022-10-11T00:31:52.442Z,86.93
2022-10-11T00:34:20.095Z,86.98
2022-10-11T00:36:49.154Z,86.42
2022-10-11T00:39:16.917Z,85.97
2022-10-11T00:41:44.741Z,85.81
2022-10-11T00:44:15.190Z,86.65
2022-10-11T00:46:47.073Z,87.93
2022-10-11T00:49:20.691Z,88.44
2022-10-11T00:51:54.099Z,86.03
2022-10-11T00:54:25.271Z,87.72
2022-10-11T00:56:57.368Z,88.01
2022-10-11T00:59:28.794Z,87.83
2022-10-11T01:01:57.007Z,88.47
2022-10-11T01:04:24.861Z,87.58
2022-10-11T01:06:55.704Z,86.67
2022-10-11T01:09:23.940Z,88.02
2022-10-11T01:11:54.316Z,87.11
2022-10-11T01:14:38.848Z,86.46
2022-10-11T01:17:19.783Z,86.13
2022-10-11T01:20:03.601Z,88.62
2022-10-11T01:23:10.499Z,87.04
2022-10-11T01:25:48.772Z,86.94
2022-10-11T01:28:28.850Z,86.91
2022-10-11T01:31:05.471Z,87.95
2022-10-11T01:33:40.650Z,87.43
2022-10-11T01:36:15.293Z,86.83
2022-10-11T01:38:48.442Z,86.79
2022-10-11T01:41:20.448Z,87.50
2022-10-11T01:43:49.451Z,88.19
2022-10-11T01:46:20.690Z,87.35
2022-10-11T01:48:50.101Z,86.88
2022-10-11T01:51:23.055Z,85.88
2022-10-11T01:54:02.826Z,86.74
2022-10-11T01:56:49.503Z,87.56
2022-10-11T01:59:28.441Z,88.60
2022-10-11T02:02:11.961Z,90.82
2022-10-11T02:04:44.852Z,88.57
2022-10-11T02:07:21.176Z,89.42
2022-10-11T02:09:54.014Z,87.96
2022-10-11T02:12:28.958Z,87.58
2022-10-11T02:14:58.733Z,87.90
2022-10-11T02:17:33.002Z,89.98
2022-10-11T02:20:04.952Z,88.81
2022-10-11T02:22:35.191Z,91.28
2022-10-11T02:25:06.896Z,90.13
2022-10-11T02:27:36.945Z,88.89
2022-10-11T02:30:08.331Z,88.86
2022-10-11T02:32:41.140Z,90.14
2022-10-11T02:35:10.577Z,88.81
2022-10-11T02:37:46.334Z,89.82
2022-10-11T02:40:20.949Z,90.83
2022-10-11T02:42:54.618Z,89.15
2022-10-11T02:45:26.859Z,90.61
2022-10-11T02:47:56.229Z,88.51
2022-10-11T02:50:24.420Z,89.27
2022-10-11T02:52:52.058Z,90.30
2022-10-11T02:55:19.936Z,91.56
2022-10-11T02:57:47.607Z,90.06
2022-10-11T03:00:16.293Z,88.56
2022-10-11T03:02:43.925Z,88.63
2022-10-11T03:05:12.955Z,87.41
2022-10-11T03:07:40.656Z,88.16
2022-10-11T03:10:08.994Z,88.08
2022-10-11T03:12:36.681Z,88.78
2022-10-11T03:15:04.767Z,87.88
2022-10-11T03:17:36.718Z,90.02
2022-10-11T03:20:05.808Z,89.21
2022-10-11T03:22:34.963Z,90.25
2022-10-11T03:25:04.422Z,89.53
2022-10-11T03:27:32.855Z,88.64
2022-10-11T03:30:00.596Z,89.39
2022-10-11T03:32:28.706Z,90.97
2022-10-11T03:34:56.439Z,90.21
2022-10-11T03:37:25.181Z,89.75
2022-10-11T03:39:54.251Z,89.48
2022-10-11T03:42:22.005Z,89.94
2022-10-11T03:44:51.904Z,88.85
2022-10-11T03:47:19.872Z,89.74
2022-10-11T03:49:47.556Z,89.31
2022-10-11T03:52:15.230Z,90.34
2022-10-11T03:54:43.093Z,89.57
2022-10-11T03:57:12.180Z,90.64
2022-10-11T03:59:39.877Z,89.80
2022-10-11T04:02:07.690Z,90.30
2022-10-11T04:04:35.791Z,89.77
2022-10-11T04:07:03.504Z,89.44
2022-10-11T04:09:31.330Z,89.19
2022-10-11T04:11:59.233Z,89.55
2022-10-11T04:14:28.445Z,89.13
2022-10-11T04:17:00.142Z,90.06
2022-10-11T04:19:28.469Z,90.54
2022-10-11T04:21:56.143Z,92.06
2022-10-11T04:24:23.905Z,93.50
2022-10-11T04:26:51.581Z,91.63
2022-10-11T04:29:19.440Z,91.19
2022-10-11T04:31:48.501Z,91.84
2022-10-11T04:34:16.485Z,90.99
2022-10-11T04:36:49.593Z,90.18
2022-10-11T04:39:17.627Z,91.55
2022-10-11T04:41:45.354Z,89.28
2022-10-11T04:44:13.081Z,91.17
2022-10-11T04:46:40.789Z,93.29
2022-10-11T04:49:09.914Z,93.39
2022-10-11T04:51:37.909Z,93.21
2022-10-11T04:54:05.682Z,92.29
2022-10-11T04:56:33.540Z,91.36
2022-10-11T04:59:01.369Z,91.89
2022-10-11T05:01:29.177Z,91.79
2022-10-11T05:03:56.933Z,91.88
2022-10-11T05:06:25.959Z,90.85
2022-10-11T05:08:53.753Z,91.52
2022-10-11T05:11:21.477Z,91.94
2022-10-11T05:13:49.146Z,93.08
2022-10-11T05:16:17.701Z,91.93
2022-10-11T05:18:45.877Z,92.69
2022-10-11T05:21:17.945Z,91.15
2022-10-11T05:23:48.532Z,90.81
2022-10-11T05:26:17.130Z,90.67
2022-10-11T05:28:45.167Z,92.03
2022-10-11T05:31:13.036Z,93.31
2022-10-11T05:33:40.713Z,93.33
2022-10-11T05:36:09.522Z,92.46
2022-10-11T05:38:38.050Z,91.04
2022-10-11T05:41:09.086Z,92.45
2022-10-11T05:43:37.449Z,93.82
2022-10-11T05:46:05.748Z,92.85
2022-10-11T05:48:33.662Z,90.98
2022-10-11T05:51:02.988Z,93.92
2022-10-11T05:53:30.960Z,92.87
2022-10-11T05:55:59.033Z,93.14
2022-10-11T05:58:28.568Z,94.67
2022-10-11T06:00:56.981Z,93.72
2022-10-11T06:03:25.166Z,94.58
2022-10-11T06:05:56.739Z,92.60
2022-10-11T06:08:24.998Z,93.90
2022-10-11T06:10:52.756Z,92.27
2022-10-11T06:13:20.408Z,92.19
2022-10-11T06:15:49.453Z,90.68
2022-10-11T06:18:17.166Z,89.86
2022-10-11T06:20:44.879Z,87.63
2022-10-11T06:23:12.577Z,87.48
2022-10-11T06:25:40.282Z,86.81
2022-10-11T06:28:08.021Z,87.93
2022-10-11T06:30:35.787Z,86.91
2022-10-11T06:33:05.275Z,86.61
2022-10-11T06:35:32.997Z,88.43
2022-10-11T06:38:00.685Z,89.13
2022-10-11T06:40:28.446Z,90.33
2022-10-11T06:42:56.247Z,90.11
2022-10-11T06:45:24.037Z,90.34
2022-10-11T06:47:51.803Z,88.49
2022-10-11T06:50:40.619Z,85.17
2022-10-11T06:53:09.277Z,84.10
2022-10-11T06:55:37.132Z,85.00
2022-10-11T06:58:04.854Z,88.32
2022-10-11T07:00:32.609Z,85.81
2022-10-11T07:03:00.375Z,84.55
2022-10-11T07:05:32.031Z,88.23
2022-10-11T07:07:59.868Z,88.66
2022-10-11T07:10:27.747Z,85.99
2022-10-11T07:12:55.461Z,84.72
2022-10-11T07:15:23.215Z,84.80
2022-10-11T07:17:50.886Z,83.79
2022-10-11T07:20:18.787Z,84.61
2022-10-11T07:22:47.897Z,84.71
2022-10-11T07:25:15.658Z,81.54
2022-10-11T07:27:43.430Z,79.51
2022-10-11T07:30:12.115Z,78.55
2022-10-11T07:32:39.820Z,77.00
2022-10-11T07:35:08.021Z,83.37
2022-10-11T07:37:35.715Z,81.73
2022-10-11T07:40:06.967Z,77.65
2022-10-11T07:42:34.710Z,76.32
2022-10-11T07:45:02.558Z,75.48
2022-10-11T07:47:30.235Z,73.17
2022-10-11T07:49:58.033Z,71.64
2022-10-11T07:52:25.744Z,62.87
2022-10-11T07:54:53.412Z,59.70
2022-10-11T07:57:22.545Z,52.87
2022-10-11T07:59:50.530Z,51.36
2022-10-11T08:02:18.416Z,50.81
2022-10-11T08:04:46.117Z,47.31
2022-10-11T08:07:13.779Z,46.87
2022-10-11T08:09:41.699Z,45.74
2022-10-11T08:12:09.416Z,46.90
2022-10-11T08:14:38.642Z,47.19
2022-10-11T08:17:06.368Z,48.97
2022-10-11T08:19:34.140Z,49.00
2022-10-11T08:22:02.128Z,47.65
2022-10-11T08:24:31.066Z,47.31
2022-10-11T08:27:01.288Z,43.68
2022-10-11T08:29:28.908Z,45.41
2022-10-11T08:31:58.390Z,47.86
2022-10-11T08:34:26.207Z,46.34
2022-10-11T08:36:53.893Z,45.97
2022-10-11T08:39:21.564Z,44.23
2022-10-11T08:41:54.235Z,45.96
2022-10-11T08:44:58.731Z,48.51
2022-10-11T08:47:32.335Z,53.22
2022-10-11T08:50:01.527Z,56.44
2022-10-11T08:52:34.788Z,57.63
2022-10-11T08:55:08.452Z,61.00
2022-10-11T08:57:38.466Z,65.31
2022-10-11T09:00:08.688Z,66.45
2022-10-11T09:03:07.505Z,68.12
2022-10-11T09:05:37.351Z,68.49
2022-10-11T09:08:11.655Z,66.76
2022-10-11T09:10:59.969Z,66.41
2022-10-11T09:13:52.362Z,67.11
2022-10-11T09:16:32.563Z,68.83
2022-10-11T09:19:39.050Z,68.80
2022-10-11T09:22:13.098Z,66.93
2022-10-11T09:24:58.144Z,69.55
2022-10-11T09:27:57.303Z,69.00
2022-10-11T09:30:20.826Z,68.22
2022-10-11T09:32:55.255Z,69.00
2022-10-11T09:35:24.425Z,69.75
2022-10-11T09:38:01.814Z,68.88
2022-10-11T09:40:44.625Z,69.82
2022-10-11T09:43:13.138Z,69.25
2022-10-11T09:45:49.132Z,67.02
2022-10-11T09:48:21.700Z,67.32
2022-10-11T09:50:52.487Z,69.48
2022-10-11T09:53:21.940Z,70.01
2022-10-11T09:55:54.266Z,69.11
2022-10-11T09:58:31.063Z,68.83
2022-10-11T10:01:07.666Z,67.53
2022-10-11T10:03:37.455Z,68.52
2022-10-11T10:06:09.659Z,69.04
2022-10-11T10:08:37.840Z,68.54
2022-10-11T10:11:08.261Z,67.86
2022-10-11T10:13:43.198Z,67.68
2022-10-11T10:16:22.022Z,66.98
2022-10-11T10:18:53.608Z,66.05
2022-10-11T10:21:29.585Z,67.50
2022-10-11T10:24:00.085Z,67.79
2022-10-11T10:26:28.508Z,68.13
2022-10-11T10:29:02.856Z,68.25
2022-10-11T10:31:55.373Z,67.66
2022-10-11T10:34:30.780Z,66.27
2022-10-11T10:37:04.888Z,64.74
2022-10-11T10:39:40.123Z,65.63
2022-10-11T10:42:14.849Z,65.69
2022-10-11T10:44:43.081Z,66.18
2022-10-11T10:47:20.824Z,63.74
2022-10-11T10:49:58.254Z,64.95
2022-10-11T10:52:47.470Z,64.16
2022-10-11T10:55:25.210Z,64.66
2022-10-11T10:58:06.410Z,63.57
2022-10-11T11:00:41.838Z,65.44
2022-10-11T11:03:17.186Z,63.87
2022-10-11T11:05:51.446Z,64.00
2022-10-11T11:08:36.206Z,63.94
2022-10-11T11:11:12.196Z,63.16
2022-10-11T11:13:48.381Z,62.43
2022-10-11T11:16:25.068Z,62.56
2022-10-11T11:18:59.282Z,62.98
2022-10-11T11:21:41.553Z,63.62
2022-10-11T11:24:17.547Z,63.18
2022-10-11T11:26:53.448Z,62.86
2022-10-11T11:29:39.439Z,63.67
2022-10-11T11:32:17.762Z,63.81
2022-10-11T11:34:49.048Z,62.43
2022-10-11T11:37:26.223Z,62.58
2022-10-11T11:39:58.685Z,64.70
2022-10-11T11:42:32.153Z,63.92
2022-10-11T11:45:06.645Z,63.52
2022-10-11T11:47:37.558Z,64.17
2022-10-11T11:50:20.770Z,62.58
2022-10-11T11:52:51.440Z,63.62
2022-10-11T11:55:27.866Z,66.06
2022-10-11T11:58:07.257Z,66.49
2022-10-11T12:00:43.690Z,69.22
2022-10-11T12:03:17.458Z,67.84
2022-10-11T12:06:27.103Z,68.54
2022-10-11T12:09:05.065Z,67.44
2022-10-11T12:11:45.680Z,67.96
2022-10-11T12:14:24.880Z,67.07
2022-10-11T12:17:17.161Z,67.73
2022-10-11T12:20:03.227Z,67.14
2022-10-11T12:23:00.168Z,67.43
2022-10-11T12:25:41.110Z,68.81
2022-10-11T12:29:00.523Z,67.27
2022-10-11T12:31:30.811Z,68.98
2022-10-11T12:34:21.108Z,68.13
2022-10-11T12:36:50.354Z,69.23
2022-10-11T12:39:52.752Z,68.61
2022-10-11T12:42:31.176Z,67.20
2022-10-11T12:45:35.105Z,66.69
2022-10-11T12:48:14.060Z,66.63
2022-10-11T12:50:58.524Z,65.97
2022-10-11T12:54:21.481Z,65.55
2022-10-11T12:56:49.839Z,65.95
2022-10-11T12:59:20.541Z,64.72
2022-10-11T13:01:52.594Z,64.23
2022-10-11T13:04:23.330Z,62.96
2022-10-11T13:06:54.284Z,63.96
2022-10-11T13:09:29.703Z,64.57
2022-10-11T13:12:04.073Z,64.42
2022-10-11T13:14:37.653Z,63.29
2022-10-11T13:17:09.265Z,63.46
2022-10-11T13:22:19.119Z,62.87
2022-10-11T13:24:46.871Z,63.03
2022-10-11T13:27:20.296Z,62.47
2022-10-11T13:29:50.069Z,62.36
2022-10-11T13:32:24.280Z,63.11
2022-10-11T13:37:30.659Z,63.46
2022-10-11T13:39:58.761Z,63.43
2022-10-11T13:42:30.658Z,64.24
2022-10-11T13:44:59.520Z,63.33
2022-10-11T13:47:31.092Z,62.18
2022-10-11T13:50:04.232Z,63.59
2022-10-11T13:52:32.102Z,64.47
2022-10-11T13:55:22.876Z,63.98
2022-10-11T13:57:52.236Z,63.93
2022-10-11T14:00:28.723Z,64.36
2022-10-11T14:03:01.002Z,64.93
2022-10-11T14:05:32.561Z,64.71
2022-10-11T14:08:03.335Z,64.72
2022-10-11T14:10:31.609Z,64.14
2022-10-11T14:13:06.484Z,63.79
2022-10-11T14:15:36.242Z,64.25
2022-10-11T14:18:34.529Z,64.86
2022-10-11T14:21:27.332Z,65.44
2022-10-11T14:23:57.165Z,64.96
2022-10-11T14:26:27.320Z,64.59
2022-10-11T14:28:59.150Z,63.54
2022-10-11T14:31:27.995Z,63.01
2022-10-11T14:33:57.696Z,63.18
2022-10-11T14:36:26.331Z,63.37
2022-10-11T14:38:54.580Z,62.36
2022-10-11T14:41:22.296Z,61.80
2022-10-11T14:43:50.229Z,61.20
2022-10-11T14:46:23.974Z,61.46
2022-10-11T14:48:56.748Z,61.73
2022-10-11T14:51:32.257Z,62.82
2022-10-11T14:54:00.057Z,62.01
2022-10-11T14:56:27.757Z,61.63
2022-10-11T14:58:55.596Z,61.22
2022-10-11T15:01:23.448Z,62.52
2022-10-11T15:03:51.397Z,64.09
2022-10-11T15:06:21.457Z,63.05
2022-10-11T15:08:51.027Z,63.00
2022-10-11T15:11:21.241Z,64.32
2022-10-11T15:13:49.759Z,63.71
2022-10-11T15:16:20.427Z,63.81
2022-10-11T15:18:50.970Z,64.55
2022-10-11T15:21:20.618Z,66.24
2022-10-11T15:23:50.206Z,65.62
2022-10-11T15:26:20.597Z,65.42
2022-10-11T15:28:49.879Z,65.39
2022-10-11T15:31:18.456Z,66.03
2022-10-11T15:33:46.615Z,66.21
2022-10-11T15:36:17.531Z,65.95
2022-10-11T15:38:46.368Z,65.76
2022-10-11T15:41:18.930Z,66.86
2022-10-11T15:43:49.136Z,67.18
2022-10-11T15:46:19.709Z,67.08
2022-10-11T15:48:48.244Z,66.88
2022-10-11T15:51:16.295Z,67.03
2022-10-11T15:53:44.390Z,68.09
2022-10-11T15:56:17.250Z,68.65
2022-10-11T15:58:45.705Z,69.73
2022-10-11T16:01:16.012Z,68.95
2022-10-11T16:03:44.324Z,69.97
2022-10-11T16:06:13.002Z,68.82
2022-10-11T16:08:41.498Z,68.93
2022-10-11T16:11:10.816Z,68.74
2022-10-11T16:13:40.452Z,69.10
2022-10-11T16:16:10.557Z,68.20
2022-10-11T16:18:39.318Z,68.44
2022-10-11T16:21:09.497Z,69.12
2022-10-11T16:23:38.013Z,68.85
2022-10-11T16:26:08.630Z,68.67
2022-10-11T16:28:37.663Z,68.74
2022-10-11T16:31:09.239Z,68.60
2022-10-11T16:33:45.395Z,68.65
2022-10-11T16:36:28.601Z,68.51
2022-10-11T16:38:56.357Z,68.79
2022-10-11T16:41:24.100Z,68.30
2022-10-11T16:43:52.306Z,69.06
2022-10-11T16:46:21.916Z,68.96
2022-10-11T16:48:49.981Z,68.56
2022-10-11T16:51:17.805Z,69.47
2022-10-11T16:53:45.593Z,69.77
2022-10-11T16:56:13.858Z,70.02
2022-10-11T16:58:41.724Z,68.99
2022-10-11T17:01:11.264Z,69.98
2022-10-11T17:03:40.775Z,70.90
2022-10-11T17:06:09.354Z,71.42
2022-10-11T17:08:37.459Z,70.99
2022-10-11T17:11:05.442Z,70.20
2022-10-11T17:13:33.478Z,70.56
2022-10-11T17:16:01.248Z,70.01
2022-10-11T17:18:29.438Z,69.68
2022-10-11T17:21:03.596Z,70.78
2022-10-11T17:23:31.887Z,70.08
2022-10-11T17:26:08.616Z,71.20
2022-10-11T17:28:39.674Z,70.66
2022-10-11T17:31:08.897Z,72.33
2022-10-11T17:33:37.301Z,72.10
2022-10-11T17:36:15.672Z,72.20
2022-10-11T17:38:43.545Z,72.00
2022-10-11T17:41:12.033Z,71.48
2022-10-11T17:43:40.034Z,72.22
2022-10-11T17:46:09.183Z,71.54
2022-10-11T17:48:39.414Z,72.02
2022-10-11T17:51:10.278Z,71.78
2022-10-11T17:53:38.795Z,72.36
2022-10-11T17:56:08.285Z,72.43
2022-10-11T17:58:38.396Z,72.36
2022-10-11T18:01:08.425Z,72.57
2022-10-11T18:03:36.458Z,73.85
2022-10-11T18:06:05.653Z,73.07
2022-10-11T18:08:39.992Z,71.90
2022-10-11T18:11:11.652Z,73.05
2022-10-11T18:13:42.559Z,73.61
2022-10-11T18:16:11.495Z,75.13
2022-10-11T18:18:39.994Z,73.73
2022-10-11T18:21:07.935Z,73.34
2022-10-11T18:23:38.289Z,73.44
2022-10-11T18:26:10.933Z,74.71
2022-10-11T18:28:38.926Z,76.50
2022-10-11T18:31:12.617Z,75.77
2022-10-11T18:33:41.631Z,74.58
2022-10-11T18:36:11.023Z,74.94
2022-10-11T18:38:43.873Z,78.50
2022-10-11T18:41:13.166Z,78.79
2022-10-11T18:43:41.311Z,76.90
2022-10-11T18:46:13.559Z,77.77
2022-10-11T18:48:41.969Z,77.52
2022-10-11T18:51:12.512Z,76.88
2022-10-11T18:53:42.304Z,76.86
2022-10-11T18:56:11.987Z,78.76
2022-10-11T18:58:41.012Z,78.95
2022-10-11T19:01:10.731Z,77.73
2022-10-11T19:03:38.534Z,77.22
2022-10-11T19:06:08.759Z,76.16
2022-10-11T19:08:36.664Z,77.84
2022-10-11T19:11:09.040Z,76.88
2022-10-11T19:13:37.564Z,77.75
2022-10-11T19:16:07.139Z,76.88
2022-10-11T19:18:36.283Z,79.38
2022-10-11T19:21:09.052Z,78.63
2022-10-11T19:23:39.338Z,78.69
2022-10-11T19:26:09.867Z,78.66
2022-10-11T19:28:37.753Z,79.71
2022-10-11T19:31:07.881Z,79.45
2022-10-11T19:33:39.060Z,80.02
2022-10-11T19:36:07.838Z,80.87
2022-10-11T19:38:37.139Z,80.44
2022-10-11T19:41:05.796Z,79.79
2022-10-11T19:43:35.154Z,79.71
2022-10-11T19:46:03.645Z,80.69
2022-10-11T19:48:32.381Z,81.22
2022-10-11T19:51:05.449Z,81.05
2022-10-11T19:53:33.707Z,82.41
2022-10-11T19:56:02.506Z,80.59
2022-10-11T19:58:30.727Z,80.67
2022-10-11T20:01:05.230Z,80.06
2022-10-11T20:03:33.376Z,80.44
2022-10-11T20:06:01.567Z,81.30
2022-10-11T20:08:31.352Z,82.25
2022-10-11T20:10:59.740Z,81.66
2022-10-11T20:13:33.834Z,81.29
2022-10-11T20:16:06.315Z,82.10
2022-10-11T20:18:34.617Z,82.70
2022-10-11T20:21:04.519Z,81.29
2022-10-11T20:23:33.009Z,82.01
2022-10-11T20:26:02.142Z,81.39
2022-10-11T20:28:31.971Z,82.54
2022-10-11T20:31:00.867Z,81.30
2022-10-11T20:33:32.790Z,82.35
2022-10-11T20:36:02.382Z,82.12
2022-10-11T20:38:31.249Z,82.12
2022-10-11T20:40:59.772Z,83.04
2022-10-11T20:43:27.483Z,82.71
2022-10-11T20:45:59.779Z,84.15
2022-10-11T20:48:27.609Z,83.21
2022-10-11T20:50:56.988Z,82.68
2022-10-11T20:53:25.501Z,83.28
2022-10-11T20:55:53.453Z,84.21
2022-10-11T20:58:21.660Z,83.75
2022-10-11T21:00:49.792Z,83.87
2022-10-11T21:03:18.162Z,83.78
2022-10-11T21:05:46.484Z,83.90
2022-10-11T21:08:15.619Z,84.13
2022-10-11T21:10:52.421Z,83.08
2022-10-11T21:13:20.143Z,83.82
2022-10-11T21:15:47.890Z,82.90
2022-10-11T21:18:15.699Z,82.26
2022-10-11T21:20:44.681Z,83.57
2022-10-11T21:23:13.584Z,84.40
2022-10-11T21:25:42.713Z,84.20
2022-10-11T21:28:10.414Z,84.02
2022-10-11T21:30:38.067Z,84.53
2022-10-11T21:33:05.751Z,84.13
2022-10-11T21:35:33.418Z,83.75
2022-10-11T21:38:01.645Z,83.91
2022-10-11T21:40:29.603Z,82.97
2022-10-11T21:42:58.821Z,83.68
2022-10-11T21:45:26.590Z,85.13
2022-10-11T21:47:54.257Z,84.39
2022-10-11T21:50:22.332Z,85.10
2022-10-11T21:52:50.010Z,86.02
2022-10-11T21:55:17.917Z,86.98
2022-10-11T21:57:45.572Z,85.26
2022-10-11T22:00:15.539Z,85.59
2022-10-11T22:02:43.258Z,84.42
2022-10-11T22:05:11.046Z,83.54
2022-10-11T22:07:38.710Z,84.81
2022-10-11T22:10:07.014Z,85.16
2022-10-11T22:12:34.912Z,84.63
2022-10-11T22:15:02.734Z,85.36
2022-10-11T22:17:31.809Z,86.26
2022-10-11T22:19:59.503Z,86.32
2022-10-11T22:22:27.156Z,85.75
2022-10-11T22:24:54.809Z,84.61
2022-10-11T22:27:22.544Z,85.07
2022-10-11T22:29:50.385Z,85.10
2022-10-11T22:32:18.068Z,85.17
2022-10-11T22:34:47.146Z,85.20
2022-10-11T22:37:14.814Z,84.80
2022-10-11T22:39:42.583Z,83.92
2022-10-11T22:42:10.362Z,83.45
2022-10-11T22:44:38.074Z,83.89
2022-10-11T22:47:05.915Z,84.80
2022-10-11T22:49:33.595Z,84.92
2022-10-11T22:52:02.651Z,83.02
2022-10-11T22:54:31.458Z,83.76
2022-10-11T22:56:59.218Z,82.96
2022-10-11T22:59:26.923Z,83.10
2022-10-11T23:01:54.599Z,82.47
2022-10-11T23:04:22.363Z,83.42
2022-10-11T23:06:50.333Z,83.87
2022-10-11T23:09:19.461Z,83.88
2022-10-11T23:11:47.094Z,83.80
2022-10-11T23:14:14.993Z,83.35
2022-10-11T23:16:42.656Z,83.07
2022-10-11T23:19:10.362Z,81.88
2022-10-11T23:21:38.032Z,81.67
2022-10-11T23:24:06.149Z,82.54
2022-10-11T23:26:35.322Z,80.86
2022-10-11T23:29:03.152Z,79.94
2022-10-11T23:31:30.919Z,81.75
2022-10-11T23:33:59.032Z,79.40
2022-10-11T23:36:27.281Z,80.42
2022-10-11T23:38:57.124Z,80.82
2022-10-11T23:41:27.249Z,80.48
2022-10-11T23:43:56.428Z,81.17
2022-10-11T23:46:24.063Z,80.33
2022-10-11T23:48:51.711Z,80.40
2022-10-11T23:51:19.556Z,80.80
2022-10-11T23:53:47.281Z,80.20
2022-10-11T23:56:14.980Z,79.80
2022-10-11T23:58:42.668Z,80.64
